createdAt,value
2018-09-17T00:00:05.615Z,2.83
2018-09-17T00:02:33.992Z,2.83
2018-09-17T00:05:02.352Z,2.80
2018-09-17T00:07:30.681Z,2.50
2018-09-17T00:09:58.992Z,2.67
2018-09-17T00:12:27.366Z,2.80
2018-09-17T00:14:55.659Z,2.87
2018-09-17T00:17:23.991Z,2.43
2018-09-17T00:19:52.378Z,2.67
2018-09-17T00:22:20.692Z,2.90
2018-09-17T00:24:48.985Z,3.40
2018-09-17T00:27:17.327Z,3.43
2018-09-17T00:29:45.699Z,3.83
2018-09-17T00:32:14.084Z,3.53
2018-09-17T00:34:42.479Z,3.13
2018-09-17T00:37:10.895Z,3.20
2018-09-17T00:39:39.277Z,3.00
2018-09-17T00:42:07.867Z,2.87
2018-09-17T00:44:36.228Z,2.97
2018-09-17T00:47:04.611Z,2.63
2018-09-17T00:49:32.922Z,3.37
2018-09-17T00:52:01.331Z,3.00
2018-09-17T00:54:29.688Z,3.07
2018-09-17T00:56:57.991Z,2.60
2018-09-17T00:59:26.380Z,2.37
2018-09-17T01:01:54.723Z,2.83
2018-09-17T01:04:23.118Z,2.63
2018-09-17T01:06:51.840Z,2.50
2018-09-17T01:09:25.520Z,2.60
2018-09-17T01:11:53.838Z,2.77
2018-09-17T01:14:22.118Z,3.00
2018-09-17T01:16:50.455Z,2.60
2018-09-17T01:19:18.790Z,2.87
2018-09-17T01:21:47.062Z,2.90
2018-09-17T01:24:15.375Z,2.70
2018-09-17T01:26:43.923Z,2.83
2018-09-17T01:29:12.224Z,3.20
2018-09-17T01:31:40.554Z,2.83
2018-09-17T01:34:08.815Z,2.80
2018-09-17T01:36:37.134Z,3.27
2018-09-17T01:39:07.826Z,3.47
2018-09-17T01:41:36.245Z,3.20
2018-09-17T01:44:04.563Z,3.47
2018-09-17T01:46:33.000Z,3.40
2018-09-17T01:49:01.264Z,3.20
2018-09-17T01:51:29.779Z,3.10
2018-09-17T01:53:58.154Z,3.37
2018-09-17T01:56:26.477Z,2.90
2018-09-17T01:58:54.814Z,3.40
2018-09-17T02:01:23.111Z,3.43
2018-09-17T02:03:51.467Z,3.70
2018-09-17T02:06:19.828Z,3.67
2018-09-17T02:08:48.192Z,3.37
2018-09-17T02:11:16.431Z,3.77
2018-09-17T02:13:44.809Z,3.47
2018-09-17T02:16:13.095Z,3.93
2018-09-17T02:18:41.399Z,3.60
2018-09-17T02:21:09.678Z,3.07
2018-09-17T02:23:37.966Z,3.67
2018-09-17T02:26:06.411Z,3.40
2018-09-17T02:28:34.732Z,3.90
2018-09-17T02:31:02.986Z,3.60
2018-09-17T02:33:31.287Z,3.53
2018-09-17T02:35:59.552Z,4.20
2018-09-17T02:38:28.765Z,3.73
2018-09-17T02:40:57.083Z,3.80
2018-09-17T02:43:25.397Z,3.90
2018-09-17T02:45:53.738Z,3.20
2018-09-17T02:48:22.015Z,3.90
2018-09-17T02:50:50.302Z,3.70
2018-09-17T02:53:18.606Z,3.50
2018-09-17T02:55:46.883Z,3.60
2018-09-17T02:58:15.175Z,4.37
2018-09-17T03:00:43.599Z,4.00
2018-09-17T03:03:12.139Z,3.80
2018-09-17T03:05:40.652Z,3.60
2018-09-17T03:08:08.941Z,3.57
2018-09-17T03:10:37.225Z,4.13
2018-09-17T03:13:05.995Z,3.80
2018-09-17T03:15:45.650Z,4.03
2018-09-17T03:18:14.095Z,4.80
2018-09-17T03:20:42.416Z,3.93
2018-09-17T03:23:10.804Z,4.83
2018-09-17T03:25:39.159Z,4.10
2018-09-17T03:28:07.443Z,3.80
2018-09-17T03:30:35.745Z,4.30
2018-09-17T03:33:04.229Z,3.97
2018-09-17T03:35:32.606Z,4.77
2018-09-17T03:38:15.144Z,4.73
2018-09-17T03:40:43.463Z,4.83
2018-09-17T03:43:11.803Z,4.93
2018-09-17T03:45:40.120Z,4.90
2018-09-17T03:48:08.459Z,5.23
2018-09-17T03:50:36.763Z,4.50
2018-09-17T03:53:06.148Z,5.33
2018-09-17T03:55:34.619Z,4.97
2018-09-17T03:58:03.010Z,4.80
2018-09-17T04:00:31.378Z,5.40
2018-09-17T04:02:59.696Z,5.80
2018-09-17T04:05:28.043Z,5.13
2018-09-17T04:07:56.350Z,5.27
2018-09-17T04:10:24.699Z,5.10
2018-09-17T04:12:53.004Z,5.77
2018-09-17T04:15:21.353Z,4.63
2018-09-17T04:17:49.656Z,5.13
2018-09-17T04:20:18.107Z,5.57
2018-09-17T04:22:46.487Z,5.77
2018-09-17T04:25:15.444Z,5.00
2018-09-17T04:27:44.135Z,4.47
2018-09-17T04:30:12.835Z,5.30
2018-09-17T04:32:41.315Z,5.10
2018-09-17T04:35:09.620Z,5.80
2018-09-17T04:37:39.036Z,5.33
2018-09-17T04:40:07.795Z,5.97
2018-09-17T04:42:37.145Z,5.73
2018-09-17T04:45:05.471Z,5.80
2018-09-17T04:47:34.355Z,5.20
2018-09-17T04:50:02.858Z,4.87
2018-09-17T04:52:31.772Z,5.37
2018-09-17T04:55:00.141Z,5.23
2018-09-17T04:57:28.523Z,5.70
2018-09-17T04:59:56.755Z,5.50
2018-09-17T05:02:25.083Z,5.43
2018-09-17T05:04:53.532Z,5.77
2018-09-17T05:07:21.930Z,6.47
2018-09-17T05:09:50.271Z,6.53
2018-09-17T05:12:18.886Z,5.77
2018-09-17T05:14:47.295Z,6.17
2018-09-17T05:17:15.742Z,5.50
2018-09-17T05:19:44.091Z,5.63
2018-09-17T05:22:12.441Z,5.57
2018-09-17T05:24:40.722Z,6.30
2018-09-17T05:27:09.039Z,6.53
2018-09-17T05:29:37.431Z,6.70
2018-09-17T05:32:06.004Z,5.53
2018-09-17T05:34:34.272Z,5.70
2018-09-17T05:37:02.567Z,6.40
2018-09-17T05:39:31.078Z,6.27
2018-09-17T05:41:59.483Z,5.40
2018-09-17T05:44:27.848Z,6.83
2018-09-17T05:46:56.153Z,6.27
2018-09-17T05:49:24.432Z,6.13
2018-09-17T05:51:52.948Z,6.80
2018-09-17T05:54:21.366Z,6.13
2018-09-17T05:56:49.666Z,6.47
2018-09-17T05:59:18.184Z,5.83
2018-09-17T06:01:46.550Z,7.17
2018-09-17T06:04:14.975Z,7.17
2018-09-17T06:06:43.558Z,5.60
2018-09-17T06:09:13.052Z,6.43
2018-09-17T06:11:41.477Z,6.40
2018-09-17T06:14:09.830Z,6.70
2018-09-17T06:16:38.090Z,7.47
2018-09-17T06:19:06.371Z,7.27
2018-09-17T06:21:34.663Z,6.17
2018-09-17T06:24:02.983Z,6.77
2018-09-17T06:26:31.314Z,6.47
2018-09-17T06:28:59.599Z,6.50
2018-09-17T06:31:28.123Z,7.37
2018-09-17T06:33:56.446Z,6.50
2018-09-17T06:36:24.823Z,6.70
2018-09-17T06:38:53.063Z,7.47
2018-09-17T06:41:21.409Z,7.30
2018-09-17T06:43:49.639Z,6.83
2018-09-17T06:46:17.915Z,7.50
2018-09-17T06:48:46.177Z,6.50
2018-09-17T06:51:14.472Z,6.77
2018-09-17T06:53:42.762Z,5.93
2018-09-17T06:56:11.701Z,6.50
2018-09-17T06:58:40.032Z,6.03
2018-09-17T07:01:08.287Z,5.83
2018-09-17T07:03:36.531Z,6.53
2018-09-17T07:06:04.879Z,7.43
2018-09-17T07:08:33.329Z,7.27
2018-09-17T07:11:01.612Z,7.83
2018-09-17T07:13:29.908Z,7.20
2018-09-17T07:15:58.205Z,7.80
2018-09-17T07:18:26.584Z,7.07
2018-09-17T07:20:54.934Z,9.33
2018-09-17T07:23:23.226Z,9.80
2018-09-17T07:25:51.519Z,8.77
2018-09-17T07:28:19.907Z,9.27
2018-09-17T07:30:48.364Z,9.70
2018-09-17T07:33:16.772Z,9.57
2018-09-17T07:35:45.233Z,7.83
2018-09-17T07:38:13.593Z,6.67
2018-09-17T07:40:41.915Z,8.07
2018-09-17T07:43:10.244Z,7.93
2018-09-17T07:45:38.574Z,7.27
2018-09-17T07:48:06.893Z,7.50
2018-09-17T07:50:35.202Z,7.27
2018-09-17T07:53:03.496Z,6.93
2018-09-17T07:55:32.167Z,8.37
2018-09-17T07:58:00.556Z,6.97
2018-09-17T08:00:28.874Z,7.73
2018-09-17T08:02:57.175Z,7.33
2018-09-17T08:05:25.459Z,6.60
2018-09-17T08:07:53.787Z,6.17
2018-09-17T08:10:24.168Z,6.00
2018-09-17T08:12:52.881Z,6.63
2018-09-17T08:15:22.070Z,5.07
2018-09-17T08:17:51.349Z,6.23
2018-09-17T08:20:19.646Z,5.47
2018-09-17T08:22:48.088Z,5.87
2018-09-17T08:25:16.423Z,5.63
2018-09-17T08:27:44.878Z,5.50
2018-09-17T08:30:13.176Z,5.73
2018-09-17T08:32:41.499Z,5.60
2018-09-17T08:35:09.938Z,5.30
2018-09-17T08:37:38.552Z,6.80
2018-09-17T08:40:07.478Z,4.87
2018-09-17T08:42:35.863Z,5.67
2018-09-17T08:45:04.329Z,5.87
2018-09-17T08:47:32.640Z,4.67
2018-09-17T08:50:00.951Z,5.63
2018-09-17T08:52:29.647Z,5.27
2018-09-17T08:55:03.223Z,4.60
2018-09-17T08:57:32.076Z,4.97
2018-09-17T09:00:05.787Z,5.30
2018-09-17T09:02:39.378Z,5.43
2018-09-17T09:05:13.156Z,4.23
2018-09-17T09:07:46.727Z,4.80
2018-09-17T09:10:23.155Z,4.77
2018-09-17T09:12:57.199Z,4.77
2018-09-17T09:15:30.931Z,4.13
2018-09-17T09:17:59.210Z,3.70
2018-09-17T09:20:27.460Z,4.73
2018-09-17T09:22:55.718Z,4.10
2018-09-17T09:25:24.391Z,5.00
2018-09-17T09:27:52.653Z,3.90
2018-09-17T09:30:21.146Z,4.33
2018-09-17T09:32:49.411Z,4.57
2018-09-17T09:35:17.700Z,3.53
2018-09-17T09:37:45.964Z,4.07
2018-09-17T09:40:14.315Z,3.57
2018-09-17T09:42:43.270Z,4.27
2018-09-17T09:45:11.960Z,3.63
2018-09-17T09:47:40.272Z,3.70
2018-09-17T09:50:08.699Z,3.57
2018-09-17T09:52:36.981Z,3.67
2018-09-17T09:55:05.219Z,3.67
2018-09-17T09:57:33.508Z,4.47
2018-09-17T10:00:01.803Z,3.47
2018-09-17T10:02:31.102Z,3.50
2018-09-17T10:04:59.398Z,3.40
2018-09-17T10:07:27.658Z,3.57
2018-09-17T10:10:01.320Z,3.53
2018-09-17T10:12:35.192Z,3.43
2018-09-17T10:15:08.824Z,3.25
2018-09-17T10:17:42.572Z,4.60
2018-09-17T10:20:10.847Z,4.97
2018-09-17T10:22:39.089Z,4.10
2018-09-17T10:25:07.354Z,4.05
2018-09-17T10:27:35.637Z,4.67
2018-09-17T10:30:04.066Z,4.17
2018-09-17T10:32:32.269Z,3.50
2018-09-17T10:35:00.547Z,3.75
2018-09-17T10:37:28.894Z,4.33
2018-09-17T10:39:57.231Z,3.87
2018-09-17T10:42:25.503Z,3.58
2018-09-17T10:44:53.766Z,3.40
2018-09-17T10:47:22.019Z,3.22
2018-09-17T10:49:50.366Z,3.67
2018-09-17T10:52:18.659Z,3.95
2018-09-17T10:54:46.957Z,3.70
2018-09-17T10:57:15.255Z,3.30
2018-09-17T10:59:43.591Z,3.12
2018-09-17T11:02:11.859Z,3.55
2018-09-17T11:04:40.143Z,3.72
2018-09-17T11:07:08.389Z,3.40
2018-09-17T11:09:36.640Z,3.35
2018-09-17T11:12:04.902Z,3.40
2018-09-17T11:14:33.411Z,3.52
2018-09-17T11:17:01.781Z,3.45
2018-09-17T11:19:30.703Z,3.37
2018-09-17T11:21:59.003Z,3.25
2018-09-17T11:24:27.330Z,3.42
2018-09-17T11:26:55.676Z,3.15
2018-09-17T11:29:23.996Z,3.15
2018-09-17T11:31:52.427Z,3.77
2018-09-17T11:34:20.827Z,3.37
2018-09-17T11:36:49.173Z,3.45
2018-09-17T11:39:17.505Z,3.00
2018-09-17T11:41:45.930Z,3.20
2018-09-17T11:44:14.223Z,3.20
2018-09-17T11:46:42.507Z,3.30
2018-09-17T11:49:10.790Z,3.42
2018-09-17T11:51:39.103Z,3.12
2018-09-17T11:54:07.512Z,3.17
2018-09-17T11:56:35.722Z,3.08
2018-09-17T11:59:04.072Z,3.02
2018-09-17T12:01:38.011Z,2.80
2018-09-17T12:04:12.968Z,2.87
2018-09-17T12:06:46.627Z,2.85
2018-09-17T12:09:15.094Z,2.90
2018-09-17T12:11:43.388Z,2.60
2018-09-17T12:14:12.296Z,3.10
2018-09-17T12:16:40.674Z,2.75
2018-09-17T12:19:08.996Z,3.20
2018-09-17T12:21:37.411Z,3.17
2018-09-17T12:24:05.799Z,3.00
2018-09-17T12:26:34.102Z,2.75
2018-09-17T12:29:02.471Z,3.10
2018-09-17T12:31:30.898Z,3.35
2018-09-17T12:33:59.224Z,3.15
2018-09-17T12:36:27.470Z,3.10
2018-09-17T12:38:55.758Z,3.33
2018-09-17T12:41:24.090Z,3.60
2018-09-17T12:43:52.442Z,3.10
2018-09-17T12:46:20.743Z,3.22
2018-09-17T12:48:48.997Z,3.58
2018-09-17T12:51:17.390Z,3.55
2018-09-17T12:53:45.718Z,3.90
2018-09-17T12:56:14.143Z,3.65
2018-09-17T12:58:42.399Z,3.12
2018-09-17T13:01:10.812Z,2.87
2018-09-17T13:03:39.105Z,3.45
2018-09-17T13:06:07.707Z,3.75
2018-09-17T13:08:36.154Z,2.83
2018-09-17T13:11:04.450Z,2.72
2018-09-17T13:13:32.755Z,3.00
2018-09-17T13:16:01.019Z,2.95
2018-09-17T13:18:29.586Z,3.20
2018-09-17T13:20:57.874Z,2.72
2018-09-17T13:23:26.134Z,3.25
2018-09-17T13:25:54.627Z,2.90
2018-09-17T13:28:22.879Z,3.22
2018-09-17T13:30:51.407Z,3.05
2018-09-17T13:33:19.697Z,3.10
2018-09-17T13:35:48.043Z,2.65
2018-09-17T13:38:16.327Z,2.80
2018-09-17T13:40:44.620Z,2.65
2018-09-17T13:43:12.927Z,2.80
2018-09-17T13:45:41.284Z,2.90
2018-09-17T13:48:09.538Z,2.70
2018-09-17T13:50:37.809Z,3.12
2018-09-17T13:53:06.252Z,2.80
2018-09-17T13:55:34.639Z,2.42
2018-09-17T13:58:02.983Z,2.62
2018-09-17T14:00:32.295Z,2.87
2018-09-17T14:03:00.578Z,2.72
2018-09-17T14:05:28.919Z,2.58
2018-09-17T14:07:57.301Z,2.83
2018-09-17T14:10:25.594Z,2.50
2018-09-17T14:12:53.903Z,2.40
2018-09-17T14:15:22.179Z,3.17
2018-09-17T14:17:50.502Z,2.62
2018-09-17T14:20:18.847Z,2.60
2018-09-17T14:22:47.266Z,2.67
2018-09-17T14:25:15.678Z,2.37
2018-09-17T14:27:44.233Z,2.33
2018-09-17T14:30:12.749Z,2.72
2018-09-17T14:32:46.473Z,2.20
2018-09-17T14:35:14.849Z,2.70
2018-09-17T14:37:43.193Z,2.60
2018-09-17T14:40:11.592Z,2.47
2018-09-17T14:42:40.007Z,2.30
2018-09-17T14:45:08.523Z,2.30
2018-09-17T14:47:36.875Z,2.40
2018-09-17T14:50:05.261Z,2.20
2018-09-17T14:52:33.579Z,2.50
2018-09-17T14:55:01.948Z,2.37
2018-09-17T14:57:30.323Z,2.33
2018-09-17T14:59:59.099Z,2.83
2018-09-17T15:02:27.471Z,2.33
2018-09-17T15:04:55.776Z,2.25
2018-09-17T15:07:24.099Z,2.65
2018-09-17T15:09:52.452Z,2.58
2018-09-17T15:12:20.825Z,2.10
2018-09-17T15:14:49.184Z,2.70
2018-09-17T15:17:17.607Z,2.35
2018-09-17T15:19:45.952Z,2.50
2018-09-17T15:22:14.336Z,2.60
2018-09-17T15:24:43.091Z,2.83
2018-09-17T15:27:11.589Z,2.60
2018-09-17T15:29:39.951Z,2.87
2018-09-17T15:32:08.313Z,2.83
2018-09-17T15:34:36.536Z,2.77
2018-09-17T15:37:04.856Z,2.43
2018-09-17T15:39:33.256Z,2.60
2018-09-17T15:42:01.644Z,2.70
2018-09-17T15:44:30.057Z,2.40
2018-09-17T15:46:58.352Z,2.60
2018-09-17T15:49:26.576Z,2.50
2018-09-17T15:51:55.086Z,2.70
2018-09-17T15:54:23.421Z,2.93
2018-09-17T15:56:51.700Z,2.73
2018-09-17T15:59:20.027Z,2.80
2018-09-17T16:01:48.437Z,2.60
2018-09-17T16:04:16.878Z,2.50
2018-09-17T16:06:45.462Z,2.83
2018-09-17T16:09:13.766Z,2.83
2018-09-17T16:11:42.053Z,2.60
2018-09-17T16:14:10.419Z,2.83
2018-09-17T16:16:38.816Z,3.03
2018-09-17T16:19:07.431Z,3.00
2018-09-17T16:21:35.718Z,3.03
2018-09-17T16:24:04.035Z,3.17
2018-09-17T16:26:32.343Z,2.63
2018-09-17T16:29:00.675Z,3.43
2018-09-17T16:31:29.035Z,3.07
2018-09-17T16:33:57.353Z,3.30
2018-09-17T16:36:25.655Z,3.10
2018-09-17T16:38:54.116Z,3.30
2018-09-17T16:41:22.475Z,3.30
2018-09-17T16:43:50.857Z,3.03
2018-09-17T16:46:19.307Z,3.40
2018-09-17T16:48:47.832Z,3.00
2018-09-17T16:51:16.179Z,3.30
2018-09-17T16:53:44.625Z,4.47
2018-09-17T16:56:12.877Z,4.93
2018-09-17T16:58:41.522Z,4.73
2018-09-17T17:01:09.791Z,5.20
2018-09-17T17:03:38.257Z,3.90
2018-09-17T17:06:06.577Z,3.87
2018-09-17T17:08:35.042Z,4.13
2018-09-17T17:11:03.537Z,4.03
2018-09-17T17:13:32.035Z,4.00
2018-09-17T17:16:00.461Z,4.00
2018-09-17T17:18:28.872Z,3.47
2018-09-17T17:20:57.192Z,3.23
2018-09-17T17:23:25.495Z,3.43
2018-09-17T17:25:53.853Z,3.37
2018-09-17T17:28:22.409Z,3.30
2018-09-17T17:30:50.735Z,3.43
2018-09-17T17:33:19.082Z,3.67
2018-09-17T17:35:47.603Z,3.83
2018-09-17T17:38:15.997Z,4.43
2018-09-17T17:40:44.485Z,3.77
2018-09-17T17:43:12.803Z,4.27
2018-09-17T17:45:41.092Z,3.67
2018-09-17T17:48:09.439Z,3.50
2018-09-17T17:50:37.821Z,4.13
2018-09-17T17:53:06.274Z,4.00
2018-09-17T17:55:34.647Z,4.10
2018-09-17T17:58:03.224Z,3.60
2018-09-17T18:00:31.595Z,4.13
2018-09-17T18:02:59.917Z,4.70
2018-09-17T18:05:28.286Z,4.73
2018-09-17T18:07:56.612Z,4.00
2018-09-17T18:10:25.008Z,4.63
2018-09-17T18:12:53.437Z,4.20
2018-09-17T18:15:22.095Z,5.03
2018-09-17T18:17:50.339Z,4.60
2018-09-17T18:20:18.898Z,4.37
2018-09-17T18:22:47.462Z,3.87
2018-09-17T18:25:15.957Z,4.43
2018-09-17T18:27:44.455Z,4.27
2018-09-17T18:30:12.863Z,3.73
2018-09-17T18:32:41.159Z,3.87
2018-09-17T18:35:09.161Z,3.87
2018-09-17T18:37:37.595Z,4.20
2018-09-17T18:40:06.241Z,4.33
2018-09-17T18:42:34.667Z,3.63
2018-09-17T18:45:03.123Z,3.60
2018-09-17T18:47:31.570Z,4.20
2018-09-17T18:49:59.929Z,4.00
2018-09-17T18:52:28.214Z,3.90
2018-09-17T18:54:56.563Z,4.83
2018-09-17T18:57:24.947Z,4.70
2018-09-17T18:59:53.287Z,5.97
2018-09-17T19:02:21.756Z,6.60
2018-09-17T19:04:50.316Z,7.70
2018-09-17T19:07:18.796Z,8.67
2018-09-17T19:09:47.225Z,8.50
2018-09-17T19:12:16.755Z,7.90
2018-09-17T19:14:50.361Z,7.57
2018-09-17T19:17:24.462Z,7.20
2018-09-17T19:19:53.481Z,7.13
2018-09-17T19:22:27.187Z,6.47
2018-09-17T19:24:55.440Z,7.20
2018-09-17T19:28:31.145Z,6.43
2018-09-17T19:30:59.545Z,6.20
2018-09-17T19:33:27.892Z,6.40
2018-09-17T19:35:56.288Z,7.30
2018-09-17T19:38:29.876Z,6.97
2018-09-17T19:40:58.296Z,7.93
2018-09-17T19:43:26.677Z,61.07
2018-09-17T19:46:00.625Z,61.07
2018-09-17T19:48:29.062Z,79.57
2018-09-17T19:51:02.703Z,122.13
2018-09-17T19:53:31.130Z,105.73
2018-09-17T19:55:59.505Z,61.30
2018-09-17T19:58:33.232Z,40.57
2018-09-17T20:01:01.548Z,21.27
2018-09-17T20:03:29.859Z,20.70
2018-09-17T20:06:03.614Z,16.27
2018-09-17T20:08:31.897Z,11.53
2018-09-17T20:11:00.392Z,10.53
2018-09-17T20:13:28.775Z,7.10
2018-09-17T20:16:00.013Z,6.47
2018-09-17T20:18:28.811Z,6.13
2018-09-17T20:20:57.348Z,5.30
2018-09-17T20:23:25.736Z,5.07
2018-09-17T20:25:54.335Z,5.43
2018-09-17T20:28:22.783Z,6.20
2018-09-17T20:30:51.407Z,5.17
2018-09-17T20:33:20.360Z,5.50
2018-09-17T20:35:48.930Z,5.30
2018-09-17T20:38:17.455Z,4.70
2018-09-17T20:40:45.856Z,4.10
2018-09-17T20:43:14.194Z,4.03
2018-09-17T20:45:42.608Z,3.57
2018-09-17T20:48:11.572Z,3.47
2018-09-17T20:50:40.871Z,3.27
2018-09-17T20:53:09.236Z,3.20
2018-09-17T20:55:37.877Z,3.63
2018-09-17T20:58:06.352Z,3.67
2018-09-17T21:00:34.805Z,3.40
2018-09-17T21:03:03.218Z,3.97
2018-09-17T21:05:31.640Z,3.50
2018-09-17T21:08:00.356Z,4.37
2018-09-17T21:10:28.763Z,3.40
2018-09-17T21:12:57.177Z,4.07
2018-09-17T21:15:25.607Z,3.43
2018-09-17T21:17:54.483Z,3.10
2018-09-17T21:20:22.998Z,3.13
2018-09-17T21:22:51.452Z,3.53
2018-09-17T21:25:19.780Z,3.50
2018-09-17T21:27:48.357Z,3.60
2018-09-17T21:30:16.783Z,5.37
2018-09-17T21:32:45.451Z,4.93
2018-09-17T21:35:14.036Z,4.77
2018-09-17T21:37:42.419Z,3.57
2018-09-17T21:40:10.740Z,3.73
2018-09-17T21:42:39.401Z,3.73
2018-09-17T21:45:08.903Z,4.83
2018-09-17T21:47:37.272Z,3.20
2018-09-17T21:50:05.742Z,5.20
2018-09-17T21:52:34.306Z,4.73
2018-09-17T21:55:02.762Z,4.33
2018-09-17T21:57:31.164Z,5.73
2018-09-17T21:59:59.715Z,6.30
2018-09-17T22:02:28.193Z,5.90
2018-09-17T22:04:56.688Z,6.50
2018-09-17T22:07:25.517Z,6.20
2018-09-17T22:09:53.931Z,5.53
2018-09-17T22:12:22.359Z,5.47
2018-09-17T22:14:50.843Z,5.80
2018-09-17T22:17:19.257Z,5.33
2018-09-17T22:19:47.846Z,5.70
2018-09-17T22:22:16.426Z,6.13
2018-09-17T22:24:45.171Z,5.80
2018-09-17T22:27:13.615Z,6.10
2018-09-17T22:29:41.968Z,5.80
2018-09-17T22:32:10.310Z,5.53
2018-09-17T22:34:38.797Z,6.30
2018-09-17T22:37:07.275Z,5.80
2018-09-17T22:39:35.585Z,5.63
2018-09-17T22:42:04.010Z,6.20
2018-09-17T22:44:32.571Z,6.70
2018-09-17T22:47:00.975Z,6.10
2018-09-17T22:49:30.289Z,6.43
2018-09-17T22:51:59.949Z,5.90
2018-09-17T22:54:29.791Z,5.77
2018-09-17T22:56:59.370Z,5.40
2018-09-17T22:59:29.874Z,5.57
2018-09-17T23:01:59.621Z,5.43
2018-09-17T23:04:29.033Z,5.03
2018-09-17T23:06:58.630Z,5.07
2018-09-17T23:09:28.274Z,4.40
2018-09-17T23:11:57.650Z,4.87
2018-09-17T23:14:27.123Z,4.40
2018-09-17T23:16:57.255Z,4.97
2018-09-17T23:19:26.801Z,5.20
2018-09-17T23:21:56.178Z,4.70
2018-09-17T23:24:26.130Z,4.23
2018-09-17T23:26:55.447Z,4.53
2018-09-17T23:29:25.158Z,4.30
2018-09-17T23:31:54.942Z,4.00
2018-09-17T23:34:24.414Z,4.00
2018-09-17T23:36:55.453Z,3.97
2018-09-17T23:39:25.153Z,3.70
2018-09-17T23:41:54.808Z,4.40
2018-09-17T23:44:25.470Z,4.03
2018-09-17T23:46:55.141Z,3.67
2018-09-17T23:49:25.665Z,4.07
2018-09-17T23:51:54.933Z,3.87
2018-09-17T23:54:24.640Z,3.23
2018-09-17T23:56:54.140Z,3.90
2018-09-17T23:59:23.435Z,3.80
